Vihari Weather



Vihari's Current Weather

Temprature 40.47o broken clouds

broken clouds

Rain: 0 %

Min Temprature40.47o
Max Temprature40.47o
Humidity11
Wind Speed2.65 m/h
Sun Rise05:22:03
Sun Set18:52:08
Current Time: 08-May-2021 15:57:12
Lat/Lon: 30.0333, 72.35




Vihari's Geo Location



Vihari's Weather Forecast

Time Overall Temp Min Temp Max Temp Humidity Wind Speed Rain
08-May-2021 (Sat)
17:00:00 broken clouds 39.460 39.460 39.460 13 2.76 m/h 0 %
20:00:00 broken clouds 37.550 33.740 37.550 16 4.71 m/h 0 %
23:00:00 overcast clouds 33.410 30.390 33.410 23 4.4 m/h 0 %
09-May-2021 (Sun)
02:00:00 overcast clouds 30.070 30.070 30.070 27 2.76 m/h 0 %
05:00:00 broken clouds 28.590 28.590 28.590 28 2.52 m/h 0 %
08:00:00 scattered clouds 34.660 34.660 34.660 20 5.04 m/h 0 %
11:00:00 broken clouds 40.440 40.440 40.440 12 4.05 m/h 0 %
14:00:00 broken clouds 42.060 42.060 42.060 10 3.85 m/h 0 %
17:00:00 broken clouds 41.700 41.700 41.700 9 2.77 m/h 0 %
20:00:00 few clouds 35.510 35.510 35.510 13 0.97 m/h 0 %
23:00:00 few clouds 31.720 31.720 31.720 24 6.42 m/h 0 %
10-May-2021 (Mon)
02:00:00 clear sky 29.380 29.380 29.380 29 3.1 m/h 0 %
05:00:00 clear sky 29.420 29.420 29.420 25 3.37 m/h 0 %
08:00:00 clear sky 35.340 35.340 35.340 19 3.81 m/h 0 %
11:00:00 few clouds 41.450 41.450 41.450 11 3.7 m/h 0 %
14:00:00 few clouds 43.880 43.880 43.880 8 5.14 m/h 0 %
17:00:00 few clouds 42.710 42.710 42.710 8 6.35 m/h 0 %
20:00:00 clear sky 33.930 33.930 33.930 20 5.21 m/h 0 %
23:00:00 scattered clouds 32.370 32.370 32.370 24 4.15 m/h 0 %
11-May-2021 (Tue)
02:00:00 overcast clouds 30.470 30.470 30.470 30 3.39 m/h 0 %
05:00:00 broken clouds 29.600 29.600 29.600 30 3.35 m/h 0 %
08:00:00 overcast clouds 34.890 34.890 34.890 25 4.34 m/h 0 %
11:00:00 scattered clouds 41.500 41.500 41.500 15 4.37 m/h 0 %
14:00:00 clear sky 43.980 43.980 43.980 10 5.71 m/h 0 %
17:00:00 scattered clouds 37.690 37.690 37.690 17 1.88 m/h 0 %
20:00:00 light rain 32.510 32.510 32.510 27 5.19 m/h 150 %
23:00:00 light rain 31.240 31.240 31.240 35 7.34 m/h 15 %
12-May-2021 (Wed)
02:00:00 overcast clouds 30.790 30.790 30.790 36 5.31 m/h 0 %
05:00:00 overcast clouds 29.090 29.090 29.090 40 3.26 m/h 0 %
08:00:00 broken clouds 32.950 32.950 32.950 30 3.61 m/h 0 %
11:00:00 broken clouds 37.100 37.100 37.100 24 3.67 m/h 0 %
14:00:00 broken clouds 39.650 39.650 39.650 18 5.49 m/h 0 %
17:00:00 scattered clouds 36.440 36.440 36.440 24 5.12 m/h 0 %
20:00:00 light rain 27.600 27.600 27.600 48 8.56 m/h 106 %
23:00:00 light rain 26.650 26.650 26.650 51 7.83 m/h 21 %
13-May-2021 (Thu)
02:00:00 light rain 26.300 26.300 26.300 55 2.29 m/h 24 %
05:00:00 light rain 24.780 24.780 24.780 61 3.75 m/h 57 %
08:00:00 light rain 28.710 28.710 28.710 42 4.58 m/h 76 %
11:00:00 clear sky 33.990 33.990 33.990 28 4.36 m/h 0 %
14:00:00 clear sky 36.850 36.850 36.850 24 3.73 m/h 0 %

Famous Cities (60)